sensor_id;sensor_type;location;lat;lon;timestamp;temperature;humidity
75380;HTU21D;65641;44.714;37.756;2023-02-19T00:00:30;8.70;85.26
75380;HTU21D;65641;44.714;37.756;2023-02-19T00:01:38;8.71;85.25
75380;HTU21D;65641;44.714;37.756;2023-02-19T00:02:42;8.68;85.19
75380;HTU21D;65641;44.714;37.756;2023-02-19T00:03:50;8.71;85.23
75380;HTU21D;65641;44.714;37.756;2023-02-19T00:04:53;8.71;85.29
75380;HTU21D;65641;44.714;37.756;2023-02-19T00:05:58;8.71;85.10
75380;HTU21D;65641;44.714;37.756;2023-02-19T00:07:02;8.73;85.23
75380;HTU21D;65641;44.714;37.756;2023-02-19T00:08:05;8.72;85.18
75380;HTU21D;65641;44.714;37.756;2023-02-19T00:09:10;8.73;85.11
75380;HTU21D;65641;44.714;37.756;2023-02-19T00:10:12;8.72;85.16
75380;HTU21D;65641;44.714;37.756;2023-02-19T00:11:24;8.73;85.19
75380;HTU21D;65641;44.714;37.756;2023-02-19T00:12:27;8.73;85.16
75380;HTU21D;65641;44.714;37.756;2023-02-19T00:13:30;8.74;85.28
75380;HTU21D;65641;44.714;37.756;2023-02-19T00:14:33;8.74;85.21
75380;HTU21D;65641;44.714;37.756;2023-02-19T00:15:36;8.73;85.21
75380;HTU21D;65641;44.714;37.756;2023-02-19T00:16:39;8.74;85.21
75380;HTU21D;65641;44.714;37.756;2023-02-19T00:17:42;8.73;85.19
75380;HTU21D;65641;44.714;37.756;2023-02-19T00:18:45;8.75;85.11
75380;HTU21D;65641;44.714;37.756;2023-02-19T00:19:48;8.74;85.48
75380;HTU21D;65641;44.714;37.756;2023-02-19T00:20:51;8.73;85.36
75380;HTU21D;65641;44.714;37.756;2023-02-19T00:21:54;8.74;85.22
75380;HTU21D;65641;44.714;37.756;2023-02-19T00:22:57;8.75;85.15
75380;HTU21D;65641;44.714;37.756;2023-02-19T00:24:02;8.74;85.20
75380;HTU21D;65641;44.714;37.756;2023-02-19T00:25:05;8.74;85.19
75380;HTU21D;65641;44.714;37.756;2023-02-19T00:26:11;8.74;85.19
75380;HTU21D;65641;44.714;37.756;2023-02-19T00:27:21;8.75;85.12
75380;HTU21D;65641;44.714;37.756;2023-02-19T00:28:24;8.74;85.09
75380;HTU21D;65641;44.714;37.756;2023-02-19T00:29:27;8.74;85.13
75380;HTU21D;65641;44.714;37.756;2023-02-19T00:30:30;8.74;85.24
75380;HTU21D;65641;44.714;37.756;2023-02-19T00:31:34;8.75;85.22
75380;HTU21D;65641;44.714;37.756;2023-02-19T00:32:37;8.75;85.19
75380;HTU21D;65641;44.714;37.756;2023-02-19T00:33:44;8.75;85.16
75380;HTU21D;65641;44.714;37.756;2023-02-19T00:34:47;8.74;85.16
75380;HTU21D;65641;44.714;37.756;2023-02-19T00:35:50;8.74;85.12
75380;HTU21D;65641;44.714;37.756;2023-02-19T00:36:53;8.77;85.10
75380;HTU21D;65641;44.714;37.756;2023-02-19T00:37:56;8.74;85.13
75380;HTU21D;65641;44.714;37.756;2023-02-19T00:38:59;8.75;85.15
75380;HTU21D;65641;44.714;37.756;2023-02-19T00:40:02;8.76;85.13
75380;HTU21D;65641;44.714;37.756;2023-02-19T00:41:05;8.77;85.18
75380;HTU21D;65641;44.714;37.756;2023-02-19T00:42:21;8.76;85.13
75380;HTU21D;65641;44.714;37.756;2023-02-19T00:43:23;8.75;85.14
75380;HTU21D;65641;44.714;37.756;2023-02-19T00:44:27;8.76;85.07
75380;HTU21D;65641;44.714;37.756;2023-02-19T00:45:30;8.76;85.10
75380;HTU21D;65641;44.714;37.756;2023-02-19T00:46:41;8.76;85.08
75380;HTU21D;65641;44.714;37.756;2023-02-19T00:47:44;8.75;85.10
75380;HTU21D;65641;44.714;37.756;2023-02-19T00:48:47;8.75;85.10
75380;HTU21D;65641;44.714;37.756;2023-02-19T00:49:50;8.74;85.14
75380;HTU21D;65641;44.714;37.756;2023-02-19T00:50:53;8.75;85.11
75380;HTU21D;65641;44.714;37.756;2023-02-19T00:51:56;8.75;85.13
75380;HTU21D;65641;44.714;37.756;2023-02-19T00:52:59;8.75;85.09
75380;HTU21D;65641;44.714;37.756;2023-02-19T00:54:03;8.75;85.13
75380;HTU21D;65641;44.714;37.756;2023-02-19T00:55:06;8.74;85.06
75380;HTU21D;65641;44.714;37.756;2023-02-19T00:56:09;8.73;85.11
75380;HTU21D;65641;44.714;37.756;2023-02-19T00:57:12;8.73;85.26
75380;HTU21D;65641;44.714;37.756;2023-02-19T00:58:15;8.74;85.22
75380;HTU21D;65641;44.714;37.756;2023-02-19T00:59:18;8.72;85.16
75380;HTU21D;65641;44.714;37.756;2023-02-19T01:00:21;8.72;85.19
75380;HTU21D;65641;44.714;37.756;2023-02-19T01:01:24;8.73;85.26
75380;HTU21D;65641;44.714;37.756;2023-02-19T01:02:27;8.71;85.28
75380;HTU21D;65641;44.714;37.756;2023-02-19T01:03:30;8.73;85.22
75380;HTU21D;65641;44.714;37.756;2023-02-19T01:04:33;8.72;85.21
75380;HTU21D;65641;44.714;37.756;2023-02-19T01:05:36;8.71;85.21
75380;HTU21D;65641;44.714;37.756;2023-02-19T01:06:40;8.71;85.26
75380;HTU21D;65641;44.714;37.756;2023-02-19T01:07:43;8.71;85.23
75380;HTU21D;65641;44.714;37.756;2023-02-19T01:08:46;8.71;85.24
75380;HTU21D;65641;44.714;37.756;2023-02-19T01:09:49;8.70;85.24
75380;HTU21D;65641;44.714;37.756;2023-02-19T01:10:52;8.70;85.22
75380;HTU21D;65641;44.714;37.756;2023-02-19T01:11:55;8.70;85.27
75380;HTU21D;65641;44.714;37.756;2023-02-19T01:12:57;8.68;85.26
75380;HTU21D;65641;44.714;37.756;2023-02-19T01:14:00;8.68;85.31
75380;HTU21D;65641;44.714;37.756;2023-02-19T01:15:04;8.70;85.22
75380;HTU21D;65641;44.714;37.756;2023-02-19T01:17:15;8.68;85.32
75380;HTU21D;65641;44.714;37.756;2023-02-19T01:18:18;8.67;85.35
75380;HTU21D;65641;44.714;37.756;2023-02-19T01:19:20;8.68;85.25
75380;HTU21D;65641;44.714;37.756;2023-02-19T01:20:23;8.67;85.32
75380;HTU21D;65641;44.714;37.756;2023-02-19T01:21:29;8.67;85.26
75380;HTU21D;65641;44.714;37.756;2023-02-19T01:22:32;8.66;85.30
75380;HTU21D;65641;44.714;37.756;2023-02-19T01:23:35;8.67;85.34
75380;HTU21D;65641;44.714;37.756;2023-02-19T01:24:38;8.67;85.32
75380;HTU21D;65641;44.714;37.756;2023-02-19T01:25:41;8.67;85.32
75380;HTU21D;65641;44.714;37.756;2023-02-19T01:26:44;8.67;85.38
75380;HTU21D;65641;44.714;37.756;2023-02-19T01:27:47;8.67;85.34
75380;HTU21D;65641;44.714;37.756;2023-02-19T01:28:51;8.67;85.36
75380;HTU21D;65641;44.714;37.756;2023-02-19T01:29:54;8.66;85.41
75380;HTU21D;65641;44.714;37.756;2023-02-19T01:31:02;8.67;85.33
75380;HTU21D;65641;44.714;37.756;2023-02-19T01:32:05;8.66;85.33
75380;HTU21D;65641;44.714;37.756;2023-02-19T01:33:09;8.65;85.33
75380;HTU21D;65641;44.714;37.756;2023-02-19T01:34:12;8.67;85.38
75380;HTU21D;65641;44.714;37.756;2023-02-19T01:35:15;8.67;85.32
75380;HTU21D;65641;44.714;37.756;2023-02-19T01:36:18;8.68;85.35
75380;HTU21D;65641;44.714;37.756;2023-02-19T01:37:21;8.67;85.30
75380;HTU21D;65641;44.714;37.756;2023-02-19T01:38:24;8.66;85.32
75380;HTU21D;65641;44.714;37.756;2023-02-19T01:39:27;8.70;85.32
75380;HTU21D;65641;44.714;37.756;2023-02-19T01:40:30;8.67;85.32
75380;HTU21D;65641;44.714;37.756;2023-02-19T01:41:37;8.71;85.34
75380;HTU21D;65641;44.714;37.756;2023-02-19T01:42:44;8.70;85.34
75380;HTU21D;65641;44.714;37.756;2023-02-19T01:45:29;8.70;85.34
75380;HTU21D;65641;44.714;37.756;2023-02-19T01:46:34;8.68;85.29
75380;HTU21D;65641;44.714;37.756;2023-02-19T01:47:37;8.71;85.28
75380;HTU21D;65641;44.714;37.756;2023-02-19T01:48:40;8.71;85.29
75380;HTU21D;65641;44.714;37.756;2023-02-19T01:50:55;8.70;85.21
75380;HTU21D;65641;44.714;37.756;2023-02-19T01:52:28;8.71;85.26
75380;HTU21D;65641;44.714;37.756;2023-02-19T01:53:39;8.72;85.27
75380;HTU21D;65641;44.714;37.756;2023-02-19T01:54:43;8.71;85.19
75380;HTU21D;65641;44.714;37.756;2023-02-19T01:55:49;8.71;85.19
75380;HTU21D;65641;44.714;37.756;2023-02-19T01:56:53;8.72;85.27
75380;HTU21D;65641;44.714;37.756;2023-02-19T01:57:57;8.72;85.22
75380;HTU21D;65641;44.714;37.756;2023-02-19T01:59:01;8.73;85.26
75380;HTU21D;65641;44.714;37.756;2023-02-19T02:00:11;8.73;85.17
75380;HTU21D;65641;44.714;37.756;2023-02-19T02:01:16;8.71;85.24
75380;HTU21D;65641;44.714;37.756;2023-02-19T02:02:18;8.72;85.22
75380;HTU21D;65641;44.714;37.756;2023-02-19T02:03:22;8.73;85.19
75380;HTU21D;65641;44.714;37.756;2023-02-19T02:04:25;8.72;85.22
75380;HTU21D;65641;44.714;37.756;2023-02-19T02:05:55;8.72;85.31
75380;HTU21D;65641;44.714;37.756;2023-02-19T02:07:01;8.72;85.27
75380;HTU21D;65641;44.714;37.756;2023-02-19T02:08:05;8.71;85.26
75380;HTU21D;65641;44.714;37.756;2023-02-19T02:09:28;8.72;85.31
75380;HTU21D;65641;44.714;37.756;2023-02-19T02:10:50;8.72;85.25
75380;HTU21D;65641;44.714;37.756;2023-02-19T02:11:54;8.71;85.22
75380;HTU21D;65641;44.714;37.756;2023-02-19T02:12:57;8.72;85.30
75380;HTU21D;65641;44.714;37.756;2023-02-19T02:14:02;8.72;85.26
75380;HTU21D;65641;44.714;37.756;2023-02-19T02:15:06;8.72;85.29
75380;HTU21D;65641;44.714;37.756;2023-02-19T02:17:24;8.70;85.24
75380;HTU21D;65641;44.714;37.756;2023-02-19T02:19:03;8.71;85.34
75380;HTU21D;65641;44.714;37.756;2023-02-19T02:22:24;8.70;85.28
75380;HTU21D;65641;44.714;37.756;2023-02-19T02:27:23;8.68;85.32
75380;HTU21D;65641;44.714;37.756;2023-02-19T02:31:16;8.66;85.47
75380;HTU21D;65641;44.714;37.756;2023-02-19T02:32:32;8.66;85.49
75380;HTU21D;65641;44.714;37.756;2023-02-19T02:33:56;8.66;85.54
75380;HTU21D;65641;44.714;37.756;2023-02-19T02:35:10;8.65;85.58
75380;HTU21D;65641;44.714;37.756;2023-02-19T02:36:29;8.64;85.55
75380;HTU21D;65641;44.714;37.756;2023-02-19T02:37:36;8.63;85.63
75380;HTU21D;65641;44.714;37.756;2023-02-19T02:38:42;8.63;85.59
75380;HTU21D;65641;44.714;37.756;2023-02-19T02:39:48;8.62;85.62
75380;HTU21D;65641;44.714;37.756;2023-02-19T02:40:53;8.62;85.66
75380;HTU21D;65641;44.714;37.756;2023-02-19T02:41:58;8.62;85.71
75380;HTU21D;65641;44.714;37.756;2023-02-19T02:43:30;8.62;85.64
75380;HTU21D;65641;44.714;37.756;2023-02-19T02:44:36;8.63;85.68
75380;HTU21D;65641;44.714;37.756;2023-02-19T02:45:39;8.62;85.68
75380;HTU21D;65641;44.714;37.756;2023-02-19T02:47:05;8.62;85.74
75380;HTU21D;65641;44.714;37.756;2023-02-19T02:48:57;8.63;85.68
75380;HTU21D;65641;44.714;37.756;2023-02-19T02:50:00;8.62;85.67
75380;HTU21D;65641;44.714;37.756;2023-02-19T02:51:37;8.63;85.61
75380;HTU21D;65641;44.714;37.756;2023-02-19T02:52:59;8.62;85.67
75380;HTU21D;65641;44.714;37.756;2023-02-19T02:54:30;8.63;85.64
75380;HTU21D;65641;44.714;37.756;2023-02-19T02:55:55;8.63;85.64
75380;HTU21D;65641;44.714;37.756;2023-02-19T02:56:59;8.63;85.66
75380;HTU21D;65641;44.714;37.756;2023-02-19T02:58:07;8.62;85.65
75380;HTU21D;65641;44.714;37.756;2023-02-19T02:59:12;8.63;85.64
75380;HTU21D;65641;44.714;37.756;2023-02-19T03:00:15;8.63;85.61
75380;HTU21D;65641;44.714;37.756;2023-02-19T03:01:31;8.64;85.58
75380;HTU21D;65641;44.714;37.756;2023-02-19T03:02:54;8.64;85.60
75380;HTU21D;65641;44.714;37.756;2023-02-19T03:04:07;8.64;85.56
75380;HTU21D;65641;44.714;37.756;2023-02-19T03:05:18;8.65;85.64
75380;HTU21D;65641;44.714;37.756;2023-02-19T03:06:44;8.64;85.53
75380;HTU21D;65641;44.714;37.756;2023-02-19T03:09:11;8.66;85.51
75380;HTU21D;65641;44.714;37.756;2023-02-19T03:10:21;8.66;85.56
75380;HTU21D;65641;44.714;37.756;2023-02-19T03:11:25;8.66;85.45
75380;HTU21D;65641;44.714;37.756;2023-02-19T03:12:48;8.67;85.48
75380;HTU21D;65641;44.714;37.756;2023-02-19T03:14:20;8.66;85.48
75380;HTU21D;65641;44.714;37.756;2023-02-19T03:15:50;8.67;85.49
75380;HTU21D;65641;44.714;37.756;2023-02-19T03:17:17;8.70;85.45
75380;HTU21D;65641;44.714;37.756;2023-02-19T03:18:41;8.67;85.45
75380;HTU21D;65641;44.714;37.756;2023-02-19T03:20:08;8.68;85.46
75380;HTU21D;65641;44.714;37.756;2023-02-19T03:21:14;8.68;85.40
75380;HTU21D;65641;44.714;37.756;2023-02-19T03:22:30;8.68;85.39
75380;HTU21D;65641;44.714;37.756;2023-02-19T03:23:35;8.70;85.38
75380;HTU21D;65641;44.714;37.756;2023-02-19T03:25:06;8.68;85.42
75380;HTU21D;65641;44.714;37.756;2023-02-19T03:26:31;8.70;85.38
75380;HTU21D;65641;44.714;37.756;2023-02-19T03:27:37;8.70;85.32
75380;HTU21D;65641;44.714;37.756;2023-02-19T03:28:41;8.70;85.40
75380;HTU21D;65641;44.714;37.756;2023-02-19T03:30:16;8.71;85.36
75380;HTU21D;65641;44.714;37.756;2023-02-19T03:31:21;8.71;85.38
75380;HTU21D;65641;44.714;37.756;2023-02-19T03:32:50;8.71;85.32
75380;HTU21D;65641;44.714;37.756;2023-02-19T03:33:58;8.71;85.38
75380;HTU21D;65641;44.714;37.756;2023-02-19T03:35:06;8.71;85.35
75380;HTU21D;65641;44.714;37.756;2023-02-19T03:36:13;8.71;85.34
75380;HTU21D;65641;44.714;37.756;2023-02-19T03:37:30;8.71;85.33
75380;HTU21D;65641;44.714;37.756;2023-02-19T03:38:47;8.71;85.33
75380;HTU21D;65641;44.714;37.756;2023-02-19T03:39:52;8.70;85.32
75380;HTU21D;65641;44.714;37.756;2023-02-19T03:43:49;8.70;85.35
75380;HTU21D;65641;44.714;37.756;2023-02-19T03:46:14;8.68;85.34
75380;HTU21D;65641;44.714;37.756;2023-02-19T03:47:33;8.70;85.36
75380;HTU21D;65641;44.714;37.756;2023-02-19T03:48:58;8.68;85.38
75380;HTU21D;65641;44.714;37.756;2023-02-19T03:51:37;8.66;85.47
75380;HTU21D;65641;44.714;37.756;2023-02-19T03:54:15;8.65;85.49
75380;HTU21D;65641;44.714;37.756;2023-02-19T03:57:42;8.63;85.55
75380;HTU21D;65641;44.714;37.756;2023-02-19T03:58:50;8.63;85.51
75380;HTU21D;65641;44.714;37.756;2023-02-19T04:02:40;8.60;85.58
75380;HTU21D;65641;44.714;37.756;2023-02-19T04:04:00;8.60;85.56
75380;HTU21D;65641;44.714;37.756;2023-02-19T04:05:21;8.60;85.62
75380;HTU21D;65641;44.714;37.756;2023-02-19T04:06:28;8.59;85.69
75380;HTU21D;65641;44.714;37.756;2023-02-19T04:07:37;8.58;85.68
75380;HTU21D;65641;44.714;37.756;2023-02-19T04:08:44;8.56;85.71
75380;HTU21D;65641;44.714;37.756;2023-02-19T04:09:48;8.56;85.77
75380;HTU21D;65641;44.714;37.756;2023-02-19T04:10:54;8.55;85.78
75380;HTU21D;65641;44.714;37.756;2023-02-19T04:12:00;8.55;85.77
75380;HTU21D;65641;44.714;37.756;2023-02-19T04:13:29;8.53;85.77
75380;HTU21D;65641;44.714;37.756;2023-02-19T04:14:34;8.51;85.89
75380;HTU21D;65641;44.714;37.756;2023-02-19T04:15:40;8.51;85.82
75380;HTU21D;65641;44.714;37.756;2023-02-19T04:16:52;8.51;85.89
75380;HTU21D;65641;44.714;37.756;2023-02-19T04:18:04;8.49;85.89
75380;HTU21D;65641;44.714;37.756;2023-02-19T04:19:12;8.48;85.93
75380;HTU21D;65641;44.714;37.756;2023-02-19T04:20:17;8.47;85.96
75380;HTU21D;65641;44.714;37.756;2023-02-19T04:21:21;8.47;85.94
75380;HTU21D;65641;44.714;37.756;2023-02-19T04:22:25;8.46;86.06
75380;HTU21D;65641;44.714;37.756;2023-02-19T04:23:33;8.46;85.98
75380;HTU21D;65641;44.714;37.756;2023-02-19T04:24:42;8.44;86.05
75380;HTU21D;65641;44.714;37.756;2023-02-19T04:25:49;8.43;86.03
75380;HTU21D;65641;44.714;37.756;2023-02-19T04:26:54;8.45;86.04
75380;HTU21D;65641;44.714;37.756;2023-02-19T04:27:57;8.44;86.00
75380;HTU21D;65641;44.714;37.756;2023-02-19T04:29:01;8.44;86.00
75380;HTU21D;65641;44.714;37.756;2023-02-19T04:30:06;8.45;86.00
75380;HTU21D;65641;44.714;37.756;2023-02-19T04:31:10;8.43;86.03
75380;HTU21D;65641;44.714;37.756;2023-02-19T04:32:13;8.44;86.07
75380;HTU21D;65641;44.714;37.756;2023-02-19T04:33:16;8.44;85.97
75380;HTU21D;65641;44.714;37.756;2023-02-19T04:34:19;8.44;85.99
75380;HTU21D;65641;44.714;37.756;2023-02-19T04:35:22;8.44;86.01
75380;HTU21D;65641;44.714;37.756;2023-02-19T04:36:25;8.45;85.96
75380;HTU21D;65641;44.714;37.756;2023-02-19T04:37:28;8.45;85.94
75380;HTU21D;65641;44.714;37.756;2023-02-19T04:38:31;8.46;85.89
75380;HTU21D;65641;44.714;37.756;2023-02-19T04:39:34;8.45;85.86
75380;HTU21D;65641;44.714;37.756;2023-02-19T04:40:39;8.47;85.87
75380;HTU21D;65641;44.714;37.756;2023-02-19T04:41:41;8.47;85.84
75380;HTU21D;65641;44.714;37.756;2023-02-19T04:42:44;8.47;85.74
75380;HTU21D;65641;44.714;37.756;2023-02-19T04:43:47;8.47;85.78
75380;HTU21D;65641;44.714;37.756;2023-02-19T04:44:52;8.49;85.73
75380;HTU21D;65641;44.714;37.756;2023-02-19T04:45:59;8.49;85.73
75380;HTU21D;65641;44.714;37.756;2023-02-19T04:47:03;8.50;85.67
75380;HTU21D;65641;44.714;37.756;2023-02-19T04:48:06;8.48;85.66
75380;HTU21D;65641;44.714;37.756;2023-02-19T04:49:09;8.50;85.67
75380;HTU21D;65641;44.714;37.756;2023-02-19T04:50:12;8.50;85.67
75380;HTU21D;65641;44.714;37.756;2023-02-19T04:51:17;8.52;85.64
75380;HTU21D;65641;44.714;37.756;2023-02-19T04:52:23;8.51;85.62
75380;HTU21D;65641;44.714;37.756;2023-02-19T04:53:26;8.52;85.55
75380;HTU21D;65641;44.714;37.756;2023-02-19T04:54:29;8.52;85.59
75380;HTU21D;65641;44.714;37.756;2023-02-19T04:55:35;8.55;85.56
75380;HTU21D;65641;44.714;37.756;2023-02-19T04:56:38;8.52;85.53
75380;HTU21D;65641;44.714;37.756;2023-02-19T04:57:41;8.55;85.49
75380;HTU21D;65641;44.714;37.756;2023-02-19T04:58:47;8.56;85.49
75380;HTU21D;65641;44.714;37.756;2023-02-19T04:59:50;8.56;85.42
75380;HTU21D;65641;44.714;37.756;2023-02-19T05:00:53;8.59;85.38
75380;HTU21D;65641;44.714;37.756;2023-02-19T05:01:56;8.59;85.35
75380;HTU21D;65641;44.714;37.756;2023-02-19T05:03:00;8.60;85.29
75380;HTU21D;65641;44.714;37.756;2023-02-19T05:04:03;8.61;85.24
75380;HTU21D;65641;44.714;37.756;2023-02-19T05:05:06;8.61;85.21
75380;HTU21D;65641;44.714;37.756;2023-02-19T05:06:11;8.63;85.16
75380;HTU21D;65641;44.714;37.756;2023-02-19T05:07:17;8.64;85.14
75380;HTU21D;65641;44.714;37.756;2023-02-19T05:08:20;8.65;85.08
75380;HTU21D;65641;44.714;37.756;2023-02-19T05:09:23;8.66;85.07
75380;HTU21D;65641;44.714;37.756;2023-02-19T05:10:27;8.66;85.06
75380;HTU21D;65641;44.714;37.756;2023-02-19T05:11:30;8.68;85.04
75380;HTU21D;65641;44.714;37.756;2023-02-19T05:12:39;8.68;85.03
75380;HTU21D;65641;44.714;37.756;2023-02-19T05:13:42;8.70;84.98
75380;HTU21D;65641;44.714;37.756;2023-02-19T05:14:45;8.70;85.03
75380;HTU21D;65641;44.714;37.756;2023-02-19T05:15:59;8.71;84.91
75380;HTU21D;65641;44.714;37.756;2023-02-19T05:17:03;8.72;84.89
75380;HTU21D;65641;44.714;37.756;2023-02-19T05:18:05;8.73;84.82
75380;HTU21D;65641;44.714;37.756;2023-02-19T05:19:11;8.75;84.84
75380;HTU21D;65641;44.714;37.756;2023-02-19T05:20:14;8.75;84.82
75380;HTU21D;65641;44.714;37.756;2023-02-19T05:21:20;8.77;84.75
75380;HTU21D;65641;44.714;37.756;2023-02-19T05:22:23;8.78;84.73
75380;HTU21D;65641;44.714;37.756;2023-02-19T05:23:26;8.79;84.73
75380;HTU21D;65641;44.714;37.756;2023-02-19T05:24:29;8.80;84.64
75380;HTU21D;65641;44.714;37.756;2023-02-19T05:25:33;8.81;84.59
75380;HTU21D;65641;44.714;37.756;2023-02-19T05:26:36;8.82;84.55
75380;HTU21D;65641;44.714;37.756;2023-02-19T05:27:39;8.82;84.58
75380;HTU21D;65641;44.714;37.756;2023-02-19T05:28:46;8.83;84.60
75380;HTU21D;65641;44.714;37.756;2023-02-19T05:29:49;8.83;84.56
75380;HTU21D;65641;44.714;37.756;2023-02-19T05:30:55;8.85;84.52
75380;HTU21D;65641;44.714;37.756;2023-02-19T05:31:59;8.87;84.44
75380;HTU21D;65641;44.714;37.756;2023-02-19T05:33:02;8.88;84.42
75380;HTU21D;65641;44.714;37.756;2023-02-19T05:34:05;8.91;84.39
75380;HTU21D;65641;44.714;37.756;2023-02-19T05:35:08;8.91;84.34
75380;HTU21D;65641;44.714;37.756;2023-02-19T05:36:12;8.93;84.28
75380;HTU21D;65641;44.714;37.756;2023-02-19T05:37:18;8.95;84.18
75380;HTU21D;65641;44.714;37.756;2023-02-19T05:38:22;8.95;84.16
75380;HTU21D;65641;44.714;37.756;2023-02-19T05:39:25;8.97;84.11
75380;HTU21D;65641;44.714;37.756;2023-02-19T05:40:27;8.98;84.10
75380;HTU21D;65641;44.714;37.756;2023-02-19T05:41:30;9.00;84.08
75380;HTU21D;65641;44.714;37.756;2023-02-19T05:42:33;9.01;84.02
75380;HTU21D;65641;44.714;37.756;2023-02-19T05:43:37;9.03;83.98
75380;HTU21D;65641;44.714;37.756;2023-02-19T05:44:41;9.05;83.99
75380;HTU21D;65641;44.714;37.756;2023-02-19T05:45:44;9.04;83.95
75380;HTU21D;65641;44.714;37.756;2023-02-19T05:46:46;9.06;83.94
75380;HTU21D;65641;44.714;37.756;2023-02-19T05:47:55;9.08;83.90
75380;HTU21D;65641;44.714;37.756;2023-02-19T05:48:58;9.09;83.83
75380;HTU21D;65641;44.714;37.756;2023-02-19T05:50:01;9.11;83.79
75380;HTU21D;65641;44.714;37.756;2023-02-19T05:51:09;9.14;83.74
75380;HTU21D;65641;44.714;37.756;2023-02-19T05:52:15;9.16;83.68
75380;HTU21D;65641;44.714;37.756;2023-02-19T05:53:18;9.18;83.65
75380;HTU21D;65641;44.714;37.756;2023-02-19T05:54:23;9.18;83.66
75380;HTU21D;65641;44.714;37.756;2023-02-19T05:55:27;9.17;83.53
75380;HTU21D;65641;44.714;37.756;2023-02-19T05:56:34;9.18;83.52
75380;HTU21D;65641;44.714;37.756;2023-02-19T05:57:46;9.19;83.58
75380;HTU21D;65641;44.714;37.756;2023-02-19T05:58:51;9.19;83.58
75380;HTU21D;65641;44.714;37.756;2023-02-19T05:59:55;9.20;83.59
75380;HTU21D;65641;44.714;37.756;2023-02-19T06:00:58;9.19;83.67
75380;HTU21D;65641;44.714;37.756;2023-02-19T06:02:01;9.19;83.68
75380;HTU21D;65641;44.714;37.756;2023-02-19T06:03:04;9.19;83.63
75380;HTU21D;65641;44.714;37.756;2023-02-19T06:04:08;9.20;83.66
75380;HTU21D;65641;44.714;37.756;2023-02-19T06:05:12;9.18;83.75
75380;HTU21D;65641;44.714;37.756;2023-02-19T06:06:17;9.17;83.74
75380;HTU21D;65641;44.714;37.756;2023-02-19T06:07:20;9.18;83.74
75380;HTU21D;65641;44.714;37.756;2023-02-19T06:08:23;9.19;83.78
75380;HTU21D;65641;44.714;37.756;2023-02-19T06:09:25;9.19;83.75
75380;HTU21D;65641;44.714;37.756;2023-02-19T06:10:28;9.19;83.78
75380;HTU21D;65641;44.714;37.756;2023-02-19T06:11:31;9.19;83.74
75380;HTU21D;65641;44.714;37.756;2023-02-19T06:12:34;9.20;83.72
75380;HTU21D;65641;44.714;37.756;2023-02-19T06:13:37;9.21;83.77
75380;HTU21D;65641;44.714;37.756;2023-02-19T06:14:40;9.19;83.71
75380;HTU21D;65641;44.714;37.756;2023-02-19T06:15:42;9.22;83.78
75380;HTU21D;65641;44.714;37.756;2023-02-19T06:16:45;9.21;83.72
75380;HTU21D;65641;44.714;37.756;2023-02-19T06:17:48;9.21;83.78
75380;HTU21D;65641;44.714;37.756;2023-02-19T06:18:51;9.20;83.71
75380;HTU21D;65641;44.714;37.756;2023-02-19T06:19:54;9.23;83.78
75380;HTU21D;65641;44.714;37.756;2023-02-19T06:21:00;9.22;83.70
75380;HTU21D;65641;44.714;37.756;2023-02-19T06:22:06;9.23;83.72
75380;HTU21D;65641;44.714;37.756;2023-02-19T06:23:09;9.23;83.71
75380;HTU21D;65641;44.714;37.756;2023-02-19T06:24:12;9.23;83.72
75380;HTU21D;65641;44.714;37.756;2023-02-19T06:25:18;9.24;83.70
75380;HTU21D;65641;44.714;37.756;2023-02-19T06:26:22;9.25;83.63
75380;HTU21D;65641;44.714;37.756;2023-02-19T06:27:26;9.26;83.65
75380;HTU21D;65641;44.714;37.756;2023-02-19T06:28:29;9.27;83.62
75380;HTU21D;65641;44.714;37.756;2023-02-19T06:29:32;9.29;83.63
75380;HTU21D;65641;44.714;37.756;2023-02-19T06:30:35;9.30;83.53
75380;HTU21D;65641;44.714;37.756;2023-02-19T06:31:38;9.30;83.52
75380;HTU21D;65641;44.714;37.756;2023-02-19T06:32:41;9.32;83.49
75380;HTU21D;65641;44.714;37.756;2023-02-19T06:33:44;9.33;83.54
75380;HTU21D;65641;44.714;37.756;2023-02-19T06:34:47;9.32;83.53
75380;HTU21D;65641;44.714;37.756;2023-02-19T06:35:50;9.33;83.44
75380;HTU21D;65641;44.714;37.756;2023-02-19T06:36:53;9.32;83.50
75380;HTU21D;65641;44.714;37.756;2023-02-19T06:37:56;9.34;83.42
75380;HTU21D;65641;44.714;37.756;2023-02-19T06:38:59;9.34;83.42
75380;HTU21D;65641;44.714;37.756;2023-02-19T06:40:02;9.35;83.45
75380;HTU21D;65641;44.714;37.756;2023-02-19T06:41:06;9.36;83.38
75380;HTU21D;65641;44.714;37.756;2023-02-19T06:42:10;9.38;83.35
75380;HTU21D;65641;44.714;37.756;2023-02-19T06:43:13;9.40;83.31
75380;HTU21D;65641;44.714;37.756;2023-02-19T06:44:16;9.40;83.26
75380;HTU21D;65641;44.714;37.756;2023-02-19T06:45:19;9.42;83.29
75380;HTU21D;65641;44.714;37.756;2023-02-19T06:46:22;9.42;83.23
75380;HTU21D;65641;44.714;37.756;2023-02-19T06:47:25;9.42;83.23
75380;HTU21D;65641;44.714;37.756;2023-02-19T06:48:29;9.46;83.28
75380;HTU21D;65641;44.714;37.756;2023-02-19T06:49:33;9.48;83.22
75380;HTU21D;65641;44.714;37.756;2023-02-19T06:50:35;9.51;83.10
75380;HTU21D;65641;44.714;37.756;2023-02-19T06:51:39;9.53;83.02
75380;HTU21D;65641;44.714;37.756;2023-02-19T06:52:42;9.55;82.96
75380;HTU21D;65641;44.714;37.756;2023-02-19T06:53:45;9.57;82.89
75380;HTU21D;65641;44.714;37.756;2023-02-19T06:54:48;9.60;82.83
75380;HTU21D;65641;44.714;37.756;2023-02-19T06:56:05;9.63;82.79
75380;HTU21D;65641;44.714;37.756;2023-02-19T06:57:08;9.63;82.81
75380;HTU21D;65641;44.714;37.756;2023-02-19T06:58:11;9.65;82.73
75380;HTU21D;65641;44.714;37.756;2023-02-19T06:59:15;9.68;82.68
75380;HTU21D;65641;44.714;37.756;2023-02-19T07:00:20;9.72;82.57
75380;HTU21D;65641;44.714;37.756;2023-02-19T07:01:23;9.77;82.44
75380;HTU21D;65641;44.714;37.756;2023-02-19T07:02:26;9.82;82.34
75380;HTU21D;65641;44.714;37.756;2023-02-19T07:03:29;9.91;82.04
75380;HTU21D;65641;44.714;37.756;2023-02-19T07:04:32;9.95;81.88
75380;HTU21D;65641;44.714;37.756;2023-02-19T07:05:35;10.01;81.68
75380;HTU21D;65641;44.714;37.756;2023-02-19T07:06:38;10.07;81.55
75380;HTU21D;65641;44.714;37.756;2023-02-19T07:07:41;10.12;81.39
75380;HTU21D;65641;44.714;37.756;2023-02-19T07:08:43;10.18;81.25
75380;HTU21D;65641;44.714;37.756;2023-02-19T07:09:46;10.20;81.14
75380;HTU21D;65641;44.714;37.756;2023-02-19T07:10:56;10.24;81.06
75380;HTU21D;65641;44.714;37.756;2023-02-19T07:12:00;10.25;80.94
75380;HTU21D;65641;44.714;37.756;2023-02-19T07:13:03;10.26;81.01
75380;HTU21D;65641;44.714;37.756;2023-02-19T07:14:07;10.27;81.02
75380;HTU21D;65641;44.714;37.756;2023-02-19T07:15:10;10.24;81.17
75380;HTU21D;65641;44.714;37.756;2023-02-19T07:16:13;10.24;81.20
75380;HTU21D;65641;44.714;37.756;2023-02-19T07:17:17;10.24;81.20
75380;HTU21D;65641;44.714;37.756;2023-02-19T07:18:20;10.23;81.23
75380;HTU21D;65641;44.714;37.756;2023-02-19T07:19:23;10.24;81.27
75380;HTU21D;65641;44.714;37.756;2023-02-19T07:20:26;10.22;81.34